createdAt,value
2023-01-09T00:02:10.767Z,10.60
2023-01-09T00:07:31.572Z,16.80
2023-01-09T00:12:52.315Z,14.32
2023-01-09T00:18:13.035Z,11.73
2023-01-09T00:23:33.881Z,14.45
2023-01-09T00:28:54.536Z,13.00
2023-01-09T00:34:15.301Z,14.48
2023-01-09T00:39:36.019Z,15.80
2023-01-09T00:45:01.528Z,17.95
2023-01-09T00:50:26.873Z,15.93
2023-01-09T00:55:47.541Z,9.95
2023-01-09T01:01:08.356Z,10.52
2023-01-09T01:06:47.673Z,12.30
2023-01-09T01:12:08.680Z,15.00
2023-01-09T01:17:29.698Z,17.58
2023-01-09T01:22:50.340Z,15.25
2023-01-09T01:28:11.142Z,13.02
2023-01-09T01:33:32.329Z,11.32
2023-01-09T01:38:53.383Z,12.02
2023-01-09T01:44:51.730Z,18.27
2023-01-09T01:50:31.753Z,16.80
2023-01-09T01:56:19.957Z,10.60
2023-01-09T02:01:44.441Z,12.77
2023-01-09T02:07:08.709Z,13.68
2023-01-09T02:12:29.609Z,16.38
2023-01-09T02:18:09.564Z,14.85
2023-01-09T02:23:59.946Z,14.70
2023-01-09T02:29:42.354Z,12.65
2023-01-09T02:35:49.564Z,16.23
2023-01-09T02:41:48.176Z,15.65
2023-01-09T02:47:31.952Z,14.20
2023-01-09T02:53:29.888Z,11.80
2023-01-09T02:59:13.825Z,12.85
2023-01-09T03:04:38.824Z,11.88
2023-01-09T03:10:11.110Z,10.40
2023-01-09T03:15:36.465Z,10.52
2023-01-09T03:20:57.509Z,10.35
2023-01-09T03:26:19.381Z,10.75
2023-01-09T03:31:40.027Z,10.80
2023-01-09T03:37:00.790Z,11.43
2023-01-09T03:42:21.283Z,10.52
2023-01-09T03:47:42.069Z,10.02
2023-01-09T03:53:02.763Z,8.95
2023-01-09T03:58:24.117Z,7.35
2023-01-09T04:03:44.902Z,12.75
2023-01-09T04:09:05.598Z,11.98
2023-01-09T04:14:26.229Z,11.05
2023-01-09T04:19:46.973Z,12.38
2023-01-09T04:25:08.390Z,7.82
2023-01-09T04:30:29.121Z,9.82
2023-01-09T04:35:49.952Z,11.38
2023-01-09T04:41:10.702Z,11.80
2023-01-09T04:46:31.435Z,14.85
2023-01-09T04:51:52.750Z,15.65
2023-01-09T04:57:13.427Z,17.08
2023-01-09T05:02:34.087Z,10.48
2023-01-09T05:07:55.030Z,8.77
2023-01-09T05:13:15.742Z,9.60
2023-01-09T05:18:37.484Z,10.88
2023-01-09T05:23:58.199Z,7.60
2023-01-09T05:29:18.860Z,8.57
2023-01-09T05:34:39.535Z,10.88
2023-01-09T05:40:00.031Z,12.82
2023-01-09T05:45:20.827Z,15.73
2023-01-09T05:50:41.548Z,9.55
2023-01-09T05:56:02.593Z,13.10
2023-01-09T06:01:23.994Z,12.20
2023-01-09T06:06:45.041Z,12.10
2023-01-09T06:12:06.858Z,10.23
2023-01-09T06:17:28.040Z,11.77
2023-01-09T06:22:52.021Z,11.55
2023-01-09T06:28:12.632Z,10.80
2023-01-09T06:33:33.411Z,11.52
2023-01-09T06:38:54.103Z,10.00
2023-01-09T06:44:14.983Z,10.85
2023-01-09T06:49:35.986Z,9.75
2023-01-09T06:54:56.800Z,9.20
2023-01-09T07:00:18.000Z,12.60
2023-01-09T07:05:42.397Z,8.98
2023-01-09T07:11:03.414Z,8.35
2023-01-09T07:16:24.402Z,10.55
2023-01-09T07:21:44.957Z,10.57
2023-01-09T07:27:05.601Z,9.70
2023-01-09T07:32:26.492Z,13.73
2023-01-09T07:37:47.255Z,9.23
2023-01-09T07:43:08.150Z,11.05
2023-01-09T07:48:28.958Z,8.90
2023-01-09T07:53:49.717Z,10.10
2023-01-09T07:59:10.845Z,10.68
2023-01-09T08:04:31.665Z,11.38
2023-01-09T08:09:52.414Z,9.20
2023-01-09T08:15:14.000Z,8.57
2023-01-09T08:20:35.263Z,9.25
2023-01-09T08:25:56.017Z,8.13
2023-01-09T08:31:17.042Z,8.63
2023-01-09T08:36:37.933Z,7.38
2023-01-09T08:42:17.100Z,7.78
2023-01-09T08:47:39.446Z,8.23
2023-01-09T08:53:00.339Z,7.38
2023-01-09T08:58:22.368Z,9.50
2023-01-09T09:03:43.246Z,8.20
2023-01-09T09:09:04.347Z,9.73
2023-01-09T09:14:43.781Z,11.30
2023-01-09T09:20:05.181Z,8.43
2023-01-09T09:25:26.415Z,9.50
2023-01-09T09:30:47.307Z,11.00
2023-01-09T09:36:08.132Z,9.77
2023-01-09T09:42:14.516Z,8.38
2023-01-09T09:47:52.022Z,12.35
2023-01-09T09:53:22.193Z,9.23
2023-01-09T09:58:57.176Z,8.02
2023-01-09T10:04:19.891Z,7.53
2023-01-09T10:09:51.090Z,7.90
2023-01-09T10:15:26.342Z,9.80
2023-01-09T10:21:11.744Z,8.27
2023-01-09T10:26:54.178Z,9.25
2023-01-09T10:32:30.053Z,8.48
2023-01-09T10:37:53.462Z,13.82
2023-01-09T10:43:32.448Z,7.60
2023-01-09T10:49:01.103Z,9.20
2023-01-09T10:54:26.283Z,7.50
2023-01-09T10:59:47.441Z,11.07
2023-01-09T11:05:13.466Z,7.72
2023-01-09T11:10:54.608Z,9.30
2023-01-09T11:16:22.196Z,6.50
2023-01-09T11:21:43.067Z,7.32
2023-01-09T11:27:30.112Z,7.63
2023-01-09T11:32:50.842Z,6.82
2023-01-09T11:38:11.644Z,8.10
2023-01-09T11:43:38.464Z,8.80
2023-01-09T11:49:00.500Z,6.43
2023-01-09T11:54:27.554Z,6.88
2023-01-09T11:59:48.857Z,8.00
2023-01-09T12:05:27.269Z,10.50
2023-01-09T12:10:54.221Z,8.65
2023-01-09T12:16:21.243Z,7.50
2023-01-09T12:22:14.284Z,2.63
2023-01-09T12:27:54.692Z,1.40
2023-01-09T12:33:25.660Z,1.75
2023-01-09T12:38:54.658Z,2.13
2023-01-09T12:44:39.346Z,0.70
2023-01-09T12:50:12.024Z,2.22
2023-01-09T12:55:58.751Z,1.42
2023-01-09T13:01:38.761Z,1.10
2023-01-09T13:07:04.555Z,1.15
2023-01-09T13:12:27.866Z,1.08
2023-01-09T13:17:55.775Z,1.38
2023-01-09T13:23:23.200Z,0.88
2023-01-09T13:28:49.316Z,0.90
2023-01-09T13:34:21.921Z,1.10
2023-01-09T13:39:43.390Z,0.63
2023-01-09T13:45:25.923Z,1.50
2023-01-09T13:50:48.311Z,1.70
2023-01-09T13:56:09.125Z,3.00
2023-01-09T14:01:38.290Z,1.92
2023-01-09T14:07:22.430Z,2.55
2023-01-09T14:12:43.967Z,1.27
2023-01-09T14:18:06.479Z,1.65
2023-01-09T14:23:49.784Z,0.98
2023-01-09T14:29:28.581Z,1.92
2023-01-09T14:34:57.701Z,2.08
2023-01-09T14:40:23.818Z,1.42
2023-01-09T14:45:49.754Z,0.47
2023-01-09T14:51:16.265Z,0.63
2023-01-09T14:56:47.777Z,1.58
2023-01-09T15:02:11.082Z,1.75
2023-01-09T15:07:40.533Z,0.50
2023-01-09T15:13:05.712Z,0.77
2023-01-09T15:18:30.995Z,1.58
2023-01-09T15:23:52.160Z,2.45
2023-01-09T15:29:20.563Z,3.53
2023-01-09T15:34:44.879Z,0.60
2023-01-09T15:40:08.036Z,1.23
2023-01-09T15:45:45.565Z,1.73
2023-01-09T15:51:14.499Z,1.35
2023-01-09T15:56:37.588Z,2.15
2023-01-09T16:02:20.079Z,3.25
2023-01-09T16:07:51.831Z,7.07
2023-01-09T16:13:15.636Z,4.90
2023-01-09T16:18:38.927Z,4.10
2023-01-09T16:24:03.783Z,3.03
2023-01-09T16:29:36.750Z,2.97
2023-01-09T16:35:06.639Z,2.38
2023-01-09T16:40:29.925Z,3.05
2023-01-09T16:45:51.744Z,4.28
2023-01-09T16:51:23.056Z,3.97
2023-01-09T16:56:48.472Z,3.17
2023-01-09T17:02:17.912Z,4.45
2023-01-09T17:07:39.032Z,3.37
2023-01-09T17:12:59.804Z,2.88
2023-01-09T17:18:25.969Z,1.95
2023-01-09T17:23:47.889Z,4.13
2023-01-09T17:29:08.724Z,5.95
2023-01-09T17:34:29.708Z,5.03
2023-01-09T17:39:50.514Z,2.53
2023-01-09T17:45:11.921Z,3.92
2023-01-09T17:50:34.865Z,3.80
2023-01-09T17:55:55.844Z,5.20
2023-01-09T18:01:18.253Z,2.28
2023-01-09T18:06:38.970Z,2.70
2023-01-09T18:12:00.001Z,2.42
2023-01-09T18:17:20.691Z,3.35
2023-01-09T18:22:41.487Z,4.20
2023-01-09T18:28:03.356Z,2.17
2023-01-09T18:33:24.229Z,3.78
2023-01-09T18:38:45.109Z,1.77
2023-01-09T18:44:05.915Z,3.35
2023-01-09T18:49:26.579Z,2.50
2023-01-09T18:54:47.141Z,2.50
2023-01-09T19:00:09.365Z,4.45
2023-01-09T19:05:34.656Z,1.38
2023-01-09T19:10:55.255Z,2.90
2023-01-09T19:16:16.644Z,3.30
2023-01-09T19:21:37.353Z,3.08
2023-01-09T19:26:58.188Z,4.10
2023-01-09T19:32:18.879Z,4.10
2023-01-09T19:37:39.650Z,4.75
2023-01-09T19:43:00.343Z,2.97
2023-01-09T19:48:22.798Z,4.47
2023-01-09T19:53:44.709Z,2.97
2023-01-09T19:59:06.255Z,4.40
2023-01-09T20:04:30.056Z,5.85
2023-01-09T20:09:50.760Z,5.38
2023-01-09T20:15:14.876Z,4.15
2023-01-09T20:20:38.875Z,4.75
2023-01-09T20:26:00.454Z,11.10
2023-01-09T20:31:23.572Z,5.97
2023-01-09T20:36:44.298Z,8.70
2023-01-09T20:42:05.196Z,4.35
2023-01-09T20:47:26.132Z,5.53
2023-01-09T20:52:46.832Z,2.75
2023-01-09T20:58:07.779Z,2.40
2023-01-09T21:03:28.989Z,4.88
2023-01-09T21:08:51.027Z,4.55
2023-01-09T21:14:12.243Z,4.35
2023-01-09T21:19:33.312Z,3.45
2023-01-09T21:24:54.164Z,6.13
2023-01-09T21:30:15.047Z,10.50
2023-01-09T21:35:37.488Z,7.07
2023-01-09T21:41:18.414Z,8.90
2023-01-09T21:46:57.613Z,8.32
2023-01-09T21:52:18.528Z,5.80
2023-01-09T21:57:39.355Z,6.00
2023-01-09T22:03:01.269Z,4.25
2023-01-09T22:08:21.908Z,6.47
2023-01-09T22:13:47.016Z,5.60
2023-01-09T22:19:08.052Z,5.55
2023-01-09T22:24:28.802Z,4.32
2023-01-09T22:29:49.594Z,4.15
2023-01-09T22:35:10.745Z,3.28
2023-01-09T22:40:32.289Z,3.30
2023-01-09T22:45:53.459Z,2.28
2023-01-09T22:51:16.743Z,7.57
2023-01-09T22:56:37.425Z,3.35
2023-01-09T23:01:58.279Z,2.63
2023-01-09T23:07:18.858Z,4.13
2023-01-09T23:12:39.820Z,3.13
2023-01-09T23:18:01.195Z,1.63
2023-01-09T23:23:24.466Z,3.40
2023-01-09T23:28:45.371Z,3.33
2023-01-09T23:34:08.455Z,4.03
2023-01-09T23:39:29.280Z,1.50
2023-01-09T23:44:50.075Z,1.67
2023-01-09T23:50:11.638Z,3.17
2023-01-09T23:55:32.636Z,3.42
